sensor_id;sensor_type;location;lat;lon;timestamp;P1;durP1;ratioP1;P2;durP2;ratioP2
32633;SDS011;19043;51.012;5.648;2023-12-07T00:00:26;24.52;;;14.38;;
32633;SDS011;19043;51.012;5.648;2023-12-07T00:02:51;21.10;;;13.02;;
32633;SDS011;19043;51.012;5.648;2023-12-07T00:05:16;29.90;;;14.67;;
32633;SDS011;19043;51.012;5.648;2023-12-07T00:07:42;28.95;;;14.45;;
32633;SDS011;19043;51.012;5.648;2023-12-07T00:10:07;23.17;;;14.63;;
32633;SDS011;19043;51.012;5.648;2023-12-07T00:12:32;22.63;;;14.30;;
32633;SDS011;19043;51.012;5.648;2023-12-07T00:14:57;32.08;;;16.05;;
32633;SDS011;19043;51.012;5.648;2023-12-07T00:17:23;22.17;;;14.25;;
32633;SDS011;19043;51.012;5.648;2023-12-07T00:19:50;24.10;;;15.10;;
32633;SDS011;19043;51.012;5.648;2023-12-07T00:22:15;24.60;;;15.40;;
32633;SDS011;19043;51.012;5.648;2023-12-07T00:24:40;31.13;;;18.02;;
32633;SDS011;19043;51.012;5.648;2023-12-07T00:27:05;31.95;;;19.33;;
32633;SDS011;19043;51.012;5.648;2023-12-07T00:29:30;49.90;;;21.40;;
32633;SDS011;19043;51.012;5.648;2023-12-07T00:31:56;35.33;;;20.17;;
32633;SDS011;19043;51.012;5.648;2023-12-07T00:34:21;35.25;;;20.40;;
32633;SDS011;19043;51.012;5.648;2023-12-07T00:36:47;41.83;;;19.08;;
32633;SDS011;19043;51.012;5.648;2023-12-07T00:39:13;43.78;;;20.80;;
32633;SDS011;19043;51.012;5.648;2023-12-07T00:41:38;43.55;;;19.00;;
32633;SDS011;19043;51.012;5.648;2023-12-07T00:44:03;48.60;;;22.42;;
32633;SDS011;19043;51.012;5.648;2023-12-07T00:46:28;61.40;;;21.92;;
32633;SDS011;19043;51.012;5.648;2023-12-07T00:48:54;69.32;;;21.90;;
32633;SDS011;19043;51.012;5.648;2023-12-07T00:51:19;67.45;;;22.25;;
32633;SDS011;19043;51.012;5.648;2023-12-07T00:53:44;36.55;;;20.02;;
32633;SDS011;19043;51.012;5.648;2023-12-07T00:56:09;53.83;;;20.73;;
32633;SDS011;19043;51.012;5.648;2023-12-07T00:58:35;46.25;;;20.95;;
32633;SDS011;19043;51.012;5.648;2023-12-07T01:01:01;53.17;;;20.33;;
32633;SDS011;19043;51.012;5.648;2023-12-07T01:03:26;56.65;;;21.90;;
32633;SDS011;19043;51.012;5.648;2023-12-07T01:05:51;38.17;;;21.10;;
32633;SDS011;19043;51.012;5.648;2023-12-07T01:08:17;42.72;;;21.30;;
32633;SDS011;19043;51.012;5.648;2023-12-07T01:10:42;72.57;;;19.38;;
32633;SDS011;19043;51.012;5.648;2023-12-07T01:13:07;38.83;;;18.38;;
32633;SDS011;19043;51.012;5.648;2023-12-07T01:15:32;49.97;;;19.08;;
32633;SDS011;19043;51.012;5.648;2023-12-07T01:17:57;42.75;;;18.55;;
32633;SDS011;19043;51.012;5.648;2023-12-07T01:20:23;56.30;;;18.93;;
32633;SDS011;19043;51.012;5.648;2023-12-07T01:22:48;46.10;;;16.45;;
32633;SDS011;19043;51.012;5.648;2023-12-07T01:25:13;71.78;;;15.98;;
32633;SDS011;19043;51.012;5.648;2023-12-07T01:27:44;60.10;;;18.15;;
32633;SDS011;19043;51.012;5.648;2023-12-07T01:30:10;41.00;;;16.15;;
32633;SDS011;19043;51.012;5.648;2023-12-07T01:32:35;49.95;;;15.77;;
32633;SDS011;19043;51.012;5.648;2023-12-07T01:35:00;47.33;;;17.05;;
32633;SDS011;19043;51.012;5.648;2023-12-07T01:37:25;46.63;;;14.60;;
32633;SDS011;19043;51.012;5.648;2023-12-07T01:39:52;32.67;;;15.60;;
32633;SDS011;19043;51.012;5.648;2023-12-07T01:42:17;48.63;;;16.38;;
32633;SDS011;19043;51.012;5.648;2023-12-07T01:44:43;29.70;;;15.32;;
32633;SDS011;19043;51.012;5.648;2023-12-07T01:47:08;33.60;;;15.75;;
32633;SDS011;19043;51.012;5.648;2023-12-07T01:49:35;37.28;;;14.73;;
32633;SDS011;19043;51.012;5.648;2023-12-07T01:52:00;42.95;;;13.80;;
32633;SDS011;19043;51.012;5.648;2023-12-07T01:54:27;38.70;;;15.60;;
32633;SDS011;19043;51.012;5.648;2023-12-07T01:56:52;50.90;;;14.25;;
32633;SDS011;19043;51.012;5.648;2023-12-07T01:59:17;48.53;;;15.32;;
32633;SDS011;19043;51.012;5.648;2023-12-07T02:01:43;51.22;;;14.40;;
32633;SDS011;19043;51.012;5.648;2023-12-07T02:04:09;42.13;;;14.40;;
32633;SDS011;19043;51.012;5.648;2023-12-07T02:06:34;29.27;;;14.95;;
32633;SDS011;19043;51.012;5.648;2023-12-07T02:08:59;45.25;;;13.20;;
32633;SDS011;19043;51.012;5.648;2023-12-07T02:11:25;50.17;;;14.65;;
32633;SDS011;19043;51.012;5.648;2023-12-07T02:13:50;32.07;;;13.30;;
32633;SDS011;19043;51.012;5.648;2023-12-07T02:16:24;36.65;;;12.68;;
32633;SDS011;19043;51.012;5.648;2023-12-07T02:18:52;33.45;;;13.15;;
32633;SDS011;19043;51.012;5.648;2023-12-07T02:21:37;25.85;;;13.38;;
32633;SDS011;19043;51.012;5.648;2023-12-07T02:24:03;35.42;;;12.38;;
32633;SDS011;19043;51.012;5.648;2023-12-07T02:26:34;30.98;;;13.13;;
32633;SDS011;19043;51.012;5.648;2023-12-07T02:28:59;35.35;;;13.27;;
32633;SDS011;19043;51.012;5.648;2023-12-07T02:31:24;25.98;;;13.25;;
32633;SDS011;19043;51.012;5.648;2023-12-07T02:33:49;40.35;;;14.35;;
32633;SDS011;19043;51.012;5.648;2023-12-07T02:36:15;43.95;;;13.80;;
32633;SDS011;19043;51.012;5.648;2023-12-07T02:38:42;46.42;;;14.80;;
32633;SDS011;19043;51.012;5.648;2023-12-07T02:41:08;40.20;;;14.43;;
32633;SDS011;19043;51.012;5.648;2023-12-07T02:43:35;54.03;;;14.55;;
32633;SDS011;19043;51.012;5.648;2023-12-07T02:46:01;36.78;;;14.02;;
32633;SDS011;19043;51.012;5.648;2023-12-07T02:48:26;30.75;;;15.07;;
32633;SDS011;19043;51.012;5.648;2023-12-07T02:50:52;31.27;;;13.27;;
32633;SDS011;19043;51.012;5.648;2023-12-07T02:53:17;42.78;;;14.70;;
32633;SDS011;19043;51.012;5.648;2023-12-07T02:55:42;27.67;;;13.35;;
32633;SDS011;19043;51.012;5.648;2023-12-07T02:58:08;31.13;;;13.80;;
32633;SDS011;19043;51.012;5.648;2023-12-07T03:00:33;38.20;;;13.98;;
32633;SDS011;19043;51.012;5.648;2023-12-07T03:02:58;39.13;;;13.10;;
32633;SDS011;19043;51.012;5.648;2023-12-07T03:05:23;28.42;;;13.80;;
32633;SDS011;19043;51.012;5.648;2023-12-07T03:07:49;28.50;;;13.43;;
32633;SDS011;19043;51.012;5.648;2023-12-07T03:10:14;25.40;;;13.90;;
32633;SDS011;19043;51.012;5.648;2023-12-07T03:12:39;35.35;;;14.10;;
32633;SDS011;19043;51.012;5.648;2023-12-07T03:15:05;31.77;;;16.40;;
32633;SDS011;19043;51.012;5.648;2023-12-07T03:17:30;49.95;;;16.65;;
32633;SDS011;19043;51.012;5.648;2023-12-07T03:19:55;36.35;;;14.70;;
32633;SDS011;19043;51.012;5.648;2023-12-07T03:22:20;43.22;;;15.02;;
32633;SDS011;19043;51.012;5.648;2023-12-07T03:24:46;34.15;;;15.63;;
32633;SDS011;19043;51.012;5.648;2023-12-07T03:27:12;33.35;;;15.70;;
32633;SDS011;19043;51.012;5.648;2023-12-07T03:29:37;52.05;;;14.63;;
32633;SDS011;19043;51.012;5.648;2023-12-07T03:32:03;34.22;;;15.65;;
32633;SDS011;19043;51.012;5.648;2023-12-07T03:34:28;32.15;;;14.85;;
32633;SDS011;19043;51.012;5.648;2023-12-07T03:36:53;31.27;;;13.68;;
32633;SDS011;19043;51.012;5.648;2023-12-07T03:39:18;30.98;;;14.73;;
32633;SDS011;19043;51.012;5.648;2023-12-07T03:41:44;41.05;;;15.93;;
32633;SDS011;19043;51.012;5.648;2023-12-07T03:44:09;36.72;;;15.30;;
32633;SDS011;19043;51.012;5.648;2023-12-07T03:46:34;37.53;;;14.68;;
32633;SDS011;19043;51.012;5.648;2023-12-07T03:48:59;31.75;;;15.30;;
32633;SDS011;19043;51.012;5.648;2023-12-07T03:51:26;37.00;;;14.77;;
32633;SDS011;19043;51.012;5.648;2023-12-07T03:53:51;36.40;;;14.45;;
32633;SDS011;19043;51.012;5.648;2023-12-07T03:56:27;27.25;;;14.02;;
32633;SDS011;19043;51.012;5.648;2023-12-07T03:58:52;41.47;;;14.52;;
32633;SDS011;19043;51.012;5.648;2023-12-07T04:01:21;38.92;;;15.75;;
32633;SDS011;19043;51.012;5.648;2023-12-07T04:03:47;35.00;;;14.55;;
32633;SDS011;19043;51.012;5.648;2023-12-07T04:06:12;29.80;;;15.40;;
32633;SDS011;19043;51.012;5.648;2023-12-07T04:08:37;42.03;;;13.87;;
32633;SDS011;19043;51.012;5.648;2023-12-07T04:11:03;46.03;;;13.80;;
32633;SDS011;19043;51.012;5.648;2023-12-07T04:13:28;36.33;;;13.43;;
32633;SDS011;19043;51.012;5.648;2023-12-07T04:15:53;40.00;;;14.27;;
32633;SDS011;19043;51.012;5.648;2023-12-07T04:18:18;33.15;;;14.25;;
32633;SDS011;19043;51.012;5.648;2023-12-07T04:20:44;36.47;;;13.47;;
32633;SDS011;19043;51.012;5.648;2023-12-07T04:23:09;29.08;;;14.73;;
32633;SDS011;19043;51.012;5.648;2023-12-07T04:25:34;31.95;;;15.07;;
32633;SDS011;19043;51.012;5.648;2023-12-07T04:27:59;32.38;;;11.98;;
32633;SDS011;19043;51.012;5.648;2023-12-07T04:30:24;29.90;;;13.45;;
32633;SDS011;19043;51.012;5.648;2023-12-07T04:32:50;26.25;;;13.80;;
32633;SDS011;19043;51.012;5.648;2023-12-07T04:35:15;34.55;;;13.90;;
32633;SDS011;19043;51.012;5.648;2023-12-07T04:37:40;31.77;;;15.43;;
32633;SDS011;19043;51.012;5.648;2023-12-07T04:40:05;39.58;;;14.30;;
32633;SDS011;19043;51.012;5.648;2023-12-07T04:42:31;32.70;;;13.13;;
32633;SDS011;19043;51.012;5.648;2023-12-07T04:44:56;39.65;;;13.32;;
32633;SDS011;19043;51.012;5.648;2023-12-07T04:47:22;37.10;;;13.13;;
32633;SDS011;19043;51.012;5.648;2023-12-07T04:49:48;38.97;;;14.57;;
32633;SDS011;19043;51.012;5.648;2023-12-07T04:52:13;34.60;;;13.90;;
32633;SDS011;19043;51.012;5.648;2023-12-07T04:54:39;34.42;;;13.60;;
32633;SDS011;19043;51.012;5.648;2023-12-07T04:57:04;32.93;;;14.57;;
32633;SDS011;19043;51.012;5.648;2023-12-07T04:59:29;39.72;;;13.88;;
32633;SDS011;19043;51.012;5.648;2023-12-07T05:01:54;40.05;;;12.32;;
32633;SDS011;19043;51.012;5.648;2023-12-07T05:04:20;28.55;;;13.65;;
32633;SDS011;19043;51.012;5.648;2023-12-07T05:06:45;31.27;;;15.27;;
32633;SDS011;19043;51.012;5.648;2023-12-07T05:09:10;44.03;;;14.18;;
32633;SDS011;19043;51.012;5.648;2023-12-07T05:11:35;28.42;;;13.43;;
32633;SDS011;19043;51.012;5.648;2023-12-07T05:14:02;26.80;;;12.07;;
32633;SDS011;19043;51.012;5.648;2023-12-07T05:16:28;27.20;;;13.48;;
32633;SDS011;19043;51.012;5.648;2023-12-07T05:18:53;33.85;;;13.55;;
32633;SDS011;19043;51.012;5.648;2023-12-07T05:21:19;30.35;;;14.23;;
32633;SDS011;19043;51.012;5.648;2023-12-07T05:23:45;33.35;;;14.40;;
32633;SDS011;19043;51.012;5.648;2023-12-07T05:26:10;24.90;;;12.30;;
32633;SDS011;19043;51.012;5.648;2023-12-07T05:28:36;36.97;;;14.07;;
32633;SDS011;19043;51.012;5.648;2023-12-07T05:31:01;30.02;;;14.23;;
32633;SDS011;19043;51.012;5.648;2023-12-07T05:33:26;33.00;;;14.65;;
32633;SDS011;19043;51.012;5.648;2023-12-07T05:35:52;37.78;;;13.85;;
32633;SDS011;19043;51.012;5.648;2023-12-07T05:38:18;27.60;;;13.98;;
32633;SDS011;19043;51.012;5.648;2023-12-07T05:40:43;32.13;;;13.73;;
32633;SDS011;19043;51.012;5.648;2023-12-07T05:43:08;29.45;;;14.10;;
32633;SDS011;19043;51.012;5.648;2023-12-07T05:45:34;28.90;;;13.07;;
32633;SDS011;19043;51.012;5.648;2023-12-07T05:47:59;28.17;;;14.80;;
32633;SDS011;19043;51.012;5.648;2023-12-07T05:50:24;29.40;;;13.82;;
32633;SDS011;19043;51.012;5.648;2023-12-07T05:52:50;31.25;;;14.00;;
32633;SDS011;19043;51.012;5.648;2023-12-07T05:55:15;26.52;;;13.40;;
32633;SDS011;19043;51.012;5.648;2023-12-07T05:57:40;40.85;;;14.20;;
32633;SDS011;19043;51.012;5.648;2023-12-07T06:00:06;41.58;;;16.02;;
32633;SDS011;19043;51.012;5.648;2023-12-07T06:02:34;23.83;;;13.82;;
32633;SDS011;19043;51.012;5.648;2023-12-07T06:04:59;29.17;;;12.90;;
32633;SDS011;19043;51.012;5.648;2023-12-07T06:07:24;24.35;;;13.52;;
32633;SDS011;19043;51.012;5.648;2023-12-07T06:09:50;28.60;;;13.25;;
32633;SDS011;19043;51.012;5.648;2023-12-07T06:12:15;31.65;;;13.55;;
32633;SDS011;19043;51.012;5.648;2023-12-07T06:14:40;25.85;;;13.60;;
32633;SDS011;19043;51.012;5.648;2023-12-07T06:17:05;31.38;;;13.38;;
32633;SDS011;19043;51.012;5.648;2023-12-07T06:19:33;25.40;;;13.43;;
32633;SDS011;19043;51.012;5.648;2023-12-07T06:21:58;25.45;;;13.27;;
32633;SDS011;19043;51.012;5.648;2023-12-07T06:24:23;25.75;;;12.93;;
32633;SDS011;19043;51.012;5.648;2023-12-07T06:26:50;29.30;;;13.70;;
32633;SDS011;19043;51.012;5.648;2023-12-07T06:29:15;32.95;;;13.85;;
32633;SDS011;19043;51.012;5.648;2023-12-07T06:31:43;25.77;;;13.80;;
32633;SDS011;19043;51.012;5.648;2023-12-07T06:34:09;23.75;;;12.80;;
32633;SDS011;19043;51.012;5.648;2023-12-07T06:36:34;23.27;;;13.93;;
32633;SDS011;19043;51.012;5.648;2023-12-07T06:39:01;26.30;;;13.45;;
32633;SDS011;19043;51.012;5.648;2023-12-07T06:41:26;28.08;;;13.68;;
32633;SDS011;19043;51.012;5.648;2023-12-07T06:43:51;27.42;;;14.18;;
32633;SDS011;19043;51.012;5.648;2023-12-07T06:46:17;22.52;;;12.60;;
32633;SDS011;19043;51.012;5.648;2023-12-07T06:48:42;28.58;;;14.20;;
32633;SDS011;19043;51.012;5.648;2023-12-07T06:51:08;26.80;;;13.30;;
32633;SDS011;19043;51.012;5.648;2023-12-07T06:53:33;29.35;;;14.07;;
32633;SDS011;19043;51.012;5.648;2023-12-07T06:55:58;28.85;;;14.63;;
32633;SDS011;19043;51.012;5.648;2023-12-07T06:58:24;24.63;;;13.02;;
32633;SDS011;19043;51.012;5.648;2023-12-07T07:00:49;27.13;;;13.82;;
32633;SDS011;19043;51.012;5.648;2023-12-07T07:03:15;24.33;;;12.07;;
32633;SDS011;19043;51.012;5.648;2023-12-07T07:05:40;26.73;;;13.65;;
32633;SDS011;19043;51.012;5.648;2023-12-07T07:08:05;27.08;;;13.05;;
32633;SDS011;19043;51.012;5.648;2023-12-07T07:10:32;27.90;;;13.20;;
32633;SDS011;19043;51.012;5.648;2023-12-07T07:13:01;22.50;;;12.18;;
32633;SDS011;19043;51.012;5.648;2023-12-07T07:15:30;24.48;;;11.40;;
32633;SDS011;19043;51.012;5.648;2023-12-07T07:17:55;22.88;;;12.45;;
32633;SDS011;19043;51.012;5.648;2023-12-07T07:20:20;20.92;;;12.23;;
32633;SDS011;19043;51.012;5.648;2023-12-07T07:22:46;22.17;;;12.57;;
32633;SDS011;19043;51.012;5.648;2023-12-07T07:25:11;22.30;;;11.88;;
32633;SDS011;19043;51.012;5.648;2023-12-07T07:27:37;22.17;;;11.65;;
32633;SDS011;19043;51.012;5.648;2023-12-07T07:30:03;21.00;;;11.85;;
32633;SDS011;19043;51.012;5.648;2023-12-07T07:32:29;23.65;;;11.60;;
32633;SDS011;19043;51.012;5.648;2023-12-07T07:34:54;21.17;;;12.02;;
32633;SDS011;19043;51.012;5.648;2023-12-07T07:37:19;21.50;;;11.95;;
32633;SDS011;19043;51.012;5.648;2023-12-07T07:39:45;19.05;;;10.57;;
32633;SDS011;19043;51.012;5.648;2023-12-07T07:42:11;23.13;;;11.88;;
32633;SDS011;19043;51.012;5.648;2023-12-07T07:44:36;20.33;;;10.90;;
32633;SDS011;19043;51.012;5.648;2023-12-07T07:47:02;20.08;;;10.48;;
32633;SDS011;19043;51.012;5.648;2023-12-07T07:49:27;24.30;;;11.77;;
32633;SDS011;19043;51.012;5.648;2023-12-07T07:51:52;19.92;;;10.68;;
32633;SDS011;19043;51.012;5.648;2023-12-07T07:54:17;22.10;;;11.38;;
32633;SDS011;19043;51.012;5.648;2023-12-07T07:56:43;16.77;;;9.48;;
32633;SDS011;19043;51.012;5.648;2023-12-07T07:59:08;18.17;;;10.10;;
32633;SDS011;19043;51.012;5.648;2023-12-07T08:01:33;17.33;;;10.38;;
32633;SDS011;19043;51.012;5.648;2023-12-07T08:03:59;19.02;;;10.35;;
32633;SDS011;19043;51.012;5.648;2023-12-07T08:06:24;22.48;;;11.30;;
32633;SDS011;19043;51.012;5.648;2023-12-07T08:08:49;15.27;;;10.02;;
32633;SDS011;19043;51.012;5.648;2023-12-07T08:11:14;17.80;;;10.05;;
32633;SDS011;19043;51.012;5.648;2023-12-07T08:13:40;17.55;;;10.18;;
32633;SDS011;19043;51.012;5.648;2023-12-07T08:16:07;16.70;;;10.65;;
32633;SDS011;19043;51.012;5.648;2023-12-07T08:18:34;16.20;;;8.95;;
32633;SDS011;19043;51.012;5.648;2023-12-07T08:20:59;17.73;;;9.73;;
32633;SDS011;19043;51.012;5.648;2023-12-07T08:23:24;18.63;;;9.15;;
32633;SDS011;19043;51.012;5.648;2023-12-07T08:25:49;18.08;;;10.20;;
32633;SDS011;19043;51.012;5.648;2023-12-07T08:28:15;19.48;;;10.02;;
32633;SDS011;19043;51.012;5.648;2023-12-07T08:30:40;16.35;;;9.43;;
32633;SDS011;19043;51.012;5.648;2023-12-07T08:33:05;16.67;;;9.00;;
32633;SDS011;19043;51.012;5.648;2023-12-07T08:35:30;16.85;;;9.75;;
32633;SDS011;19043;51.012;5.648;2023-12-07T08:37:56;21.77;;;10.15;;
32633;SDS011;19043;51.012;5.648;2023-12-07T08:40:21;16.55;;;9.00;;
32633;SDS011;19043;51.012;5.648;2023-12-07T08:42:47;15.00;;;10.02;;
32633;SDS011;19043;51.012;5.648;2023-12-07T08:45:15;16.08;;;9.18;;
32633;SDS011;19043;51.012;5.648;2023-12-07T08:47:41;16.25;;;9.35;;
32633;SDS011;19043;51.012;5.648;2023-12-07T08:50:06;19.02;;;9.90;;
32633;SDS011;19043;51.012;5.648;2023-12-07T08:52:32;16.25;;;9.95;;
32633;SDS011;19043;51.012;5.648;2023-12-07T08:54:58;17.48;;;11.23;;
32633;SDS011;19043;51.012;5.648;2023-12-07T08:57:23;20.20;;;10.52;;
32633;SDS011;19043;51.012;5.648;2023-12-07T08:59:48;16.50;;;9.57;;
32633;SDS011;19043;51.012;5.648;2023-12-07T09:02:13;20.92;;;10.73;;
32633;SDS011;19043;51.012;5.648;2023-12-07T09:04:39;26.02;;;10.77;;
32633;SDS011;19043;51.012;5.648;2023-12-07T09:07:04;21.90;;;10.40;;
32633;SDS011;19043;51.012;5.648;2023-12-07T09:09:29;17.98;;;10.18;;
32633;SDS011;19043;51.012;5.648;2023-12-07T09:11:55;18.85;;;10.70;;
32633;SDS011;19043;51.012;5.648;2023-12-07T09:14:20;20.13;;;11.33;;
32633;SDS011;19043;51.012;5.648;2023-12-07T09:16:45;19.27;;;11.37;;
32633;SDS011;19043;51.012;5.648;2023-12-07T09:19:11;23.88;;;13.75;;
32633;SDS011;19043;51.012;5.648;2023-12-07T09:21:37;27.65;;;13.55;;
32633;SDS011;19043;51.012;5.648;2023-12-07T09:24:02;25.60;;;13.52;;
32633;SDS011;19043;51.012;5.648;2023-12-07T09:26:27;27.30;;;13.45;;
32633;SDS011;19043;51.012;5.648;2023-12-07T09:28:53;25.75;;;13.63;;
32633;SDS011;19043;51.012;5.648;2023-12-07T09:31:18;23.73;;;13.52;;
32633;SDS011;19043;51.012;5.648;2023-12-07T09:33:43;23.70;;;13.50;;
32633;SDS011;19043;51.012;5.648;2023-12-07T09:36:08;25.10;;;13.60;;
32633;SDS011;19043;51.012;5.648;2023-12-07T09:38:36;20.98;;;11.80;;
32633;SDS011;19043;51.012;5.648;2023-12-07T09:41:02;22.17;;;13.25;;
32633;SDS011;19043;51.012;5.648;2023-12-07T09:43:27;24.42;;;12.80;;
32633;SDS011;19043;51.012;5.648;2023-12-07T09:45:52;25.20;;;12.55;;
32633;SDS011;19043;51.012;5.648;2023-12-07T09:48:18;24.80;;;13.07;;
32633;SDS011;19043;51.012;5.648;2023-12-07T09:50:44;18.55;;;11.88;;
32633;SDS011;19043;51.012;5.648;2023-12-07T09:53:10;20.23;;;11.82;;
32633;SDS011;19043;51.012;5.648;2023-12-07T09:55:35;21.55;;;12.00;;
32633;SDS011;19043;51.012;5.648;2023-12-07T09:58:00;21.75;;;12.30;;
32633;SDS011;19043;51.012;5.648;2023-12-07T10:00:26;24.70;;;11.32;;
32633;SDS011;19043;51.012;5.648;2023-12-07T10:02:51;18.15;;;11.45;;
32633;SDS011;19043;51.012;5.648;2023-12-07T10:05:16;22.63;;;11.93;;
32633;SDS011;19043;51.012;5.648;2023-12-07T10:07:42;22.20;;;11.20;;
32633;SDS011;19043;51.012;5.648;2023-12-07T10:10:08;22.48;;;11.32;;
32633;SDS011;19043;51.012;5.648;2023-12-07T10:12:43;18.23;;;11.02;;
32633;SDS011;19043;51.012;5.648;2023-12-07T10:20:09;18.65;;;10.60;;
32633;SDS011;19043;51.012;5.648;2023-12-07T10:22:38;20.92;;;11.20;;
32633;SDS011;19043;51.012;5.648;2023-12-07T10:25:04;17.13;;;9.45;;
32633;SDS011;19043;51.012;5.648;2023-12-07T10:27:29;17.63;;;10.02;;
32633;SDS011;19043;51.012;5.648;2023-12-07T10:29:54;18.57;;;9.87;;
32633;SDS011;19043;51.012;5.648;2023-12-07T10:32:21;14.15;;;9.68;;
32633;SDS011;19043;51.012;5.648;2023-12-07T10:34:46;18.25;;;9.65;;
32633;SDS011;19043;51.012;5.648;2023-12-07T10:37:12;14.60;;;8.48;;
32633;SDS011;19043;51.012;5.648;2023-12-07T10:39:37;14.27;;;9.30;;
32633;SDS011;19043;51.012;5.648;2023-12-07T10:42:02;15.90;;;8.90;;
32633;SDS011;19043;51.012;5.648;2023-12-07T10:44:28;16.67;;;9.57;;
32633;SDS011;19043;51.012;5.648;2023-12-07T10:46:54;15.18;;;7.70;;
32633;SDS011;19043;51.012;5.648;2023-12-07T10:49:21;14.43;;;8.02;;
32633;SDS011;19043;51.012;5.648;2023-12-07T10:51:50;14.43;;;8.32;;
32633;SDS011;19043;51.012;5.648;2023-12-07T10:54:16;14.45;;;8.10;;
32633;SDS011;19043;51.012;5.648;2023-12-07T10:56:44;12.15;;;7.60;;
32633;SDS011;19043;51.012;5.648;2023-12-07T10:59:10;12.63;;;7.75;;
32633;SDS011;19043;51.012;5.648;2023-12-07T11:01:38;10.30;;;6.82;;
32633;SDS011;19043;51.012;5.648;2023-12-07T11:04:03;10.48;;;6.57;;
32633;SDS011;19043;51.012;5.648;2023-12-07T11:06:30;13.63;;;8.00;;
32633;SDS011;19043;51.012;5.648;2023-12-07T11:08:59;10.82;;;7.07;;
32633;SDS011;19043;51.012;5.648;2023-12-07T11:11:29;11.75;;;6.68;;
32633;SDS011;19043;51.012;5.648;2023-12-07T11:14:04;11.85;;;6.90;;
32633;SDS011;19043;51.012;5.648;2023-12-07T11:16:34;9.93;;;6.82;;
32633;SDS011;19043;51.012;5.648;2023-12-07T11:19:00;9.70;;;6.18;;
32633;SDS011;19043;51.012;5.648;2023-12-07T11:21:25;12.25;;;7.03;;
32633;SDS011;19043;51.012;5.648;2023-12-07T11:23:51;10.57;;;6.32;;
32633;SDS011;19043;51.012;5.648;2023-12-07T11:26:19;12.05;;;6.15;;
32633;SDS011;19043;51.012;5.648;2023-12-07T11:28:44;8.07;;;5.75;;
32633;SDS011;19043;51.012;5.648;2023-12-07T11:31:09;10.23;;;5.28;;
32633;SDS011;19043;51.012;5.648;2023-12-07T11:33:38;13.82;;;6.60;;
32633;SDS011;19043;51.012;5.648;2023-12-07T11:36:05;13.63;;;6.85;;
32633;SDS011;19043;51.012;5.648;2023-12-07T11:38:31;10.43;;;5.90;;
32633;SDS011;19043;51.012;5.648;2023-12-07T11:40:56;9.18;;;5.82;;
32633;SDS011;19043;51.012;5.648;2023-12-07T11:46:08;11.43;;;6.85;;
32633;SDS011;19043;51.012;5.648;2023-12-07T11:48:34;7.65;;;4.68;;
32633;SDS011;19043;51.012;5.648;2023-12-07T11:51:00;8.30;;;5.13;;
32633;SDS011;19043;51.012;5.648;2023-12-07T11:55:51;8.70;;;4.68;;
32633;SDS011;19043;51.012;5.648;2023-12-07T11:58:16;8.90;;;5.45;;
32633;SDS011;19043;51.012;5.648;2023-12-07T12:00:43;8.73;;;5.78;;
32633;SDS011;19043;51.012;5.648;2023-12-07T12:03:08;10.48;;;5.65;;
32633;SDS011;19043;51.012;5.648;2023-12-07T12:05:33;9.47;;;5.20;;
32633;SDS011;19043;51.012;5.648;2023-12-07T12:07:58;9.87;;;5.67;;
32633;SDS011;19043;51.012;5.648;2023-12-07T12:10:24;9.80;;;5.95;;
32633;SDS011;19043;51.012;5.648;2023-12-07T12:12:50;8.45;;;5.72;;
32633;SDS011;19043;51.012;5.648;2023-12-07T12:15:16;9.93;;;6.15;;
32633;SDS011;19043;51.012;5.648;2023-12-07T12:17:41;10.80;;;5.70;;
32633;SDS011;19043;51.012;5.648;2023-12-07T12:20:08;12.43;;;5.22;;
32633;SDS011;19043;51.012;5.648;2023-12-07T12:22:35;11.40;;;5.70;;
32633;SDS011;19043;51.012;5.648;2023-12-07T12:25:01;10.10;;;5.68;;
32633;SDS011;19043;51.012;5.648;2023-12-07T12:27:26;10.07;;;5.35;;
32633;SDS011;19043;51.012;5.648;2023-12-07T12:29:51;8.27;;;4.85;;
32633;SDS011;19043;51.012;5.648;2023-12-07T12:32:17;11.13;;;6.05;;
32633;SDS011;19043;51.012;5.648;2023-12-07T12:34:42;9.95;;;5.88;;
32633;SDS011;19043;51.012;5.648;2023-12-07T12:37:07;8.97;;;5.30;;
32633;SDS011;19043;51.012;5.648;2023-12-07T12:39:34;9.15;;;4.55;;
32633;SDS011;19043;51.012;5.648;2023-12-07T12:41:59;7.07;;;4.45;;
32633;SDS011;19043;51.012;5.648;2023-12-07T12:44:25;7.55;;;4.90;;
32633;SDS011;19043;51.012;5.648;2023-12-07T12:46:51;7.22;;;4.70;;
32633;SDS011;19043;51.012;5.648;2023-12-07T12:49:17;8.70;;;5.75;;
32633;SDS011;19043;51.012;5.648;2023-12-07T12:51:43;8.43;;;4.88;;
32633;SDS011;19043;51.012;5.648;2023-12-07T12:54:09;7.70;;;5.00;;
32633;SDS011;19043;51.012;5.648;2023-12-07T12:56:34;9.57;;;5.40;;
32633;SDS011;19043;51.012;5.648;2023-12-07T12:58:59;9.65;;;6.60;;
32633;SDS011;19043;51.012;5.648;2023-12-07T13:01:25;7.95;;;5.25;;
32633;SDS011;19043;51.012;5.648;2023-12-07T13:03:50;8.43;;;4.80;;
32633;SDS011;19043;51.012;5.648;2023-12-07T13:06:16;9.27;;;5.40;;
32633;SDS011;19043;51.012;5.648;2023-12-07T13:08:43;11.05;;;5.30;;
32633;SDS011;19043;51.012;5.648;2023-12-07T13:11:08;8.18;;;4.85;;
32633;SDS011;19043;51.012;5.648;2023-12-07T13:13:34;9.25;;;6.20;;
32633;SDS011;19043;51.012;5.648;2023-12-07T13:15:59;18.08;;;11.05;;
32633;SDS011;19043;51.012;5.648;2023-12-07T13:18:24;43.30;;;25.15;;
32633;SDS011;19043;51.012;5.648;2023-12-07T13:20:49;24.93;;;13.50;;
32633;SDS011;19043;51.012;5.648;2023-12-07T13:23:15;22.07;;;11.70;;
32633;SDS011;19043;51.012;5.648;2023-12-07T13:25:40;25.60;;;13.45;;
32633;SDS011;19043;51.012;5.648;2023-12-07T13:28:06;18.73;;;10.23;;
32633;SDS011;19043;51.012;5.648;2023-12-07T13:30:31;37.08;;;17.77;;
32633;SDS011;19043;51.012;5.648;2023-12-07T13:33:00;17.77;;;11.05;;
32633;SDS011;19043;51.012;5.648;2023-12-07T13:35:25;35.47;;;20.25;;
32633;SDS011;19043;51.012;5.648;2023-12-07T13:37:50;12.80;;;8.80;;
32633;SDS011;19043;51.012;5.648;2023-12-07T13:40:16;10.68;;;4.85;;
32633;SDS011;19043;51.012;5.648;2023-12-07T13:42:41;8.05;;;4.53;;
32633;SDS011;19043;51.012;5.648;2023-12-07T13:45:06;6.60;;;4.30;;
32633;SDS011;19043;51.012;5.648;2023-12-07T13:47:33;7.40;;;4.35;;
32633;SDS011;19043;51.012;5.648;2023-12-07T13:50:01;7.80;;;4.78;;
32633;SDS011;19043;51.012;5.648;2023-12-07T13:52:28;6.63;;;4.72;;
32633;SDS011;19043;51.012;5.648;2023-12-07T13:54:53;8.23;;;4.95;;
32633;SDS011;19043;51.012;5.648;2023-12-07T13:57:19;7.93;;;4.22;;
32633;SDS011;19043;51.012;5.648;2023-12-07T13:59:49;8.48;;;4.85;;
32633;SDS011;19043;51.012;5.648;2023-12-07T14:02:15;8.02;;;4.70;;
32633;SDS011;19043;51.012;5.648;2023-12-07T14:04:40;12.02;;;6.65;;
32633;SDS011;19043;51.012;5.648;2023-12-07T14:09:35;14.00;;;7.88;;
32633;SDS011;19043;51.012;5.648;2023-12-07T14:12:00;14.32;;;7.90;;
32633;SDS011;19043;51.012;5.648;2023-12-07T14:14:25;12.30;;;7.80;;
32633;SDS011;19043;51.012;5.648;2023-12-07T14:16:50;13.70;;;8.55;;
32633;SDS011;19043;51.012;5.648;2023-12-07T14:19:16;13.15;;;8.45;;
32633;SDS011;19043;51.012;5.648;2023-12-07T14:21:41;11.10;;;7.60;;
32633;SDS011;19043;51.012;5.648;2023-12-07T14:24:07;13.23;;;7.47;;
32633;SDS011;19043;51.012;5.648;2023-12-07T14:26:34;11.88;;;7.13;;
32633;SDS011;19043;51.012;5.648;2023-12-07T14:28:59;14.52;;;8.68;;